Aquilla, Alabama
Current Conditions -  °F | °C
As of 6:39 AM on Monday 20 Oct 2014 (Local Time) from KMEI Reporting Station
Haze Haze  
Wind Chill:   Ceiling: Unl
Heat Index:   Visibility: 6mi
Dew Point:   Wind: 0mph
Humidity: 96%   Direction: NA
Pressure: 30.09"   Gusts: NA
Location:  31.6272°N, 88.354°W
Report Text: KMEI 201139Z 00000KT 6SM BR SCT002 06/05 A3009 RMK AO2 T00560050
Loading
Personal Weather Stations






























Interactive Weather Map
Tropical Storm Tracking
New forecast layout! Learn more

10-Day Weather Forecast

Advertisements
Track Severe Weather on mobile